North Bay Airport

CYYB | YYB

North Bay , Ontario , Canada

Wednesday, December 11th, 2019 | 11:05

Weather

CYYB 111552Z 25005KT 1 1/2SM -SN SCT008 OVC014 M09/M11 A2992 RMK SN2SF2SC4 SLP164

Charts

No Charts Available

Gates

39 Available

Runways

2 Available

Events

No events for this airport


New event